createdAt,value
2019-04-03T00:01:49.107Z,85.90
2019-04-03T00:04:18.917Z,85.90
2019-04-03T00:06:48.857Z,85.50
2019-04-03T00:09:18.632Z,85.50
2019-04-03T00:11:48.418Z,85.60
2019-04-03T00:14:18.250Z,85.10
2019-04-03T00:16:48.095Z,85.50
2019-04-03T00:19:18.168Z,85.30
2019-04-03T00:21:50.187Z,86.00
2019-04-03T00:24:22.174Z,85.80
2019-04-03T00:26:52.699Z,86.20
2019-04-03T00:29:22.640Z,86.20
2019-04-03T00:31:53.838Z,86.40
2019-04-03T00:34:23.981Z,87.40
2019-04-03T00:36:53.912Z,86.90
2019-04-03T00:39:24.350Z,87.80
2019-04-03T00:41:55.128Z,87.30
2019-04-03T00:44:25.027Z,87.10
2019-04-03T00:46:55.557Z,86.80
2019-04-03T00:49:26.492Z,87.90
2019-04-03T00:51:57.458Z,87.40
2019-04-03T00:54:30.599Z,87.20
2019-04-03T00:56:59.378Z,87.00
2019-04-03T00:59:29.076Z,87.00
2019-04-03T01:01:58.780Z,86.50
2019-04-03T01:04:29.077Z,86.20
2019-04-03T01:06:59.149Z,86.60
2019-04-03T01:09:29.935Z,86.20
2019-04-03T01:12:00.899Z,86.50
2019-04-03T01:14:31.515Z,86.10
2019-04-03T01:17:03.563Z,85.50
2019-04-03T01:19:36.121Z,85.20
2019-04-03T01:22:07.362Z,84.60
2019-04-03T01:24:38.801Z,84.50
2019-04-03T01:27:12.007Z,84.90
2019-04-03T01:29:42.922Z,85.40
2019-04-03T01:32:15.381Z,84.70
2019-04-03T01:34:47.009Z,86.50
2019-04-03T01:37:16.792Z,85.40
2019-04-03T01:39:49.045Z,85.40
2019-04-03T01:42:21.490Z,85.30
2019-04-03T01:44:50.323Z,85.40
2019-04-03T01:47:20.581Z,86.20
2019-04-03T01:49:50.473Z,85.50
2019-04-03T01:52:20.387Z,86.40
2019-04-03T01:54:50.210Z,86.40
2019-04-03T01:57:20.174Z,85.90
2019-04-03T01:59:50.224Z,85.60
2019-04-03T02:02:20.314Z,85.70
2019-04-03T02:04:50.251Z,85.70
2019-04-03T02:07:19.961Z,87.50
2019-04-03T02:09:49.836Z,86.70
2019-04-03T02:12:20.224Z,86.50
2019-04-03T02:14:51.724Z,86.80
2019-04-03T02:17:23.411Z,86.90
2019-04-03T02:19:55.998Z,87.40
2019-04-03T02:22:25.524Z,87.40
2019-04-03T02:24:55.167Z,88.00
2019-04-03T02:27:25.023Z,87.30
2019-04-03T02:29:55.047Z,88.00
2019-04-03T02:32:24.993Z,88.00
2019-04-03T02:34:54.817Z,87.90
2019-04-03T02:37:24.656Z,87.90
2019-04-03T02:39:59.036Z,88.00
2019-04-03T02:42:25.971Z,88.30
2019-04-03T02:44:55.772Z,87.00
2019-04-03T02:47:25.593Z,88.30
2019-04-03T02:49:55.755Z,89.00
2019-04-03T02:52:26.429Z,88.50
2019-04-03T02:54:56.223Z,88.70
2019-04-03T02:57:26.021Z,88.60
2019-04-03T02:59:58.774Z,89.50
2019-04-03T03:02:27.199Z,89.10
2019-04-03T03:04:57.259Z,89.40
2019-04-03T03:07:27.747Z,89.00
2019-04-03T03:09:57.624Z,89.20
2019-04-03T03:12:28.735Z,89.60
2019-04-03T03:14:59.410Z,89.70
2019-04-03T03:17:30.238Z,89.80
2019-04-03T03:20:07.029Z,89.10
2019-04-03T03:22:35.737Z,89.20
2019-04-03T03:25:07.416Z,90.00
2019-04-03T03:27:40.590Z,90.20
2019-04-03T03:30:30.552Z,90.10
2019-04-03T03:32:42.072Z,90.80
2019-04-03T03:35:16.787Z,90.20
2019-04-03T03:37:44.890Z,90.30
2019-04-03T03:40:16.543Z,90.00
2019-04-03T03:42:46.571Z,90.00
2019-04-03T03:45:20.606Z,90.20
2019-04-03T03:47:51.256Z,90.50
2019-04-03T03:50:25.762Z,89.60
2019-04-03T03:52:57.488Z,89.60
2019-04-03T03:55:30.208Z,92.50
2019-04-03T03:58:01.050Z,93.00
2019-04-03T04:00:32.038Z,92.50
2019-04-03T04:03:02.489Z,91.60
2019-04-03T04:05:32.602Z,91.00
2019-04-03T04:08:02.525Z,90.70
2019-04-03T04:10:36.319Z,90.50
2019-04-03T04:13:05.826Z,90.20
2019-04-03T04:15:35.786Z,90.10
2019-04-03T04:18:06.071Z,90.10
2019-04-03T04:20:37.773Z,90.20
2019-04-03T04:23:07.665Z,90.10
2019-04-03T04:25:37.496Z,90.10
2019-04-03T04:28:09.306Z,89.70
2019-04-03T04:30:38.831Z,90.10
2019-04-03T04:33:08.834Z,90.00
2019-04-03T04:35:38.765Z,90.20
2019-04-03T04:38:08.559Z,90.10
2019-04-03T04:40:38.286Z,89.80
2019-04-03T04:43:08.616Z,90.00
2019-04-03T04:45:38.813Z,89.60
2019-04-03T04:48:08.552Z,89.90
2019-04-03T04:50:38.379Z,90.00
2019-04-03T04:53:08.329Z,89.70
2019-04-03T04:55:38.043Z,89.60
2019-04-03T04:58:07.934Z,89.30
2019-04-03T05:00:37.851Z,89.60
2019-04-03T05:03:07.670Z,89.80
2019-04-03T05:05:37.444Z,89.50
2019-04-03T05:08:07.187Z,89.60
2019-04-03T05:10:37.363Z,89.50
2019-04-03T05:13:07.236Z,89.50
2019-04-03T05:15:37.319Z,90.00
2019-04-03T05:18:07.103Z,89.50
2019-04-03T05:20:36.975Z,89.10
2019-04-03T05:23:06.762Z,89.30
2019-04-03T05:25:36.503Z,89.40
2019-04-03T05:28:06.314Z,89.40
2019-04-03T05:30:37.778Z,89.60
2019-04-03T05:33:10.601Z,89.70
2019-04-03T05:35:39.143Z,89.80
2019-04-03T05:38:08.973Z,89.40
2019-04-03T05:40:38.683Z,89.10
2019-04-03T05:43:08.583Z,89.60
2019-04-03T05:45:40.925Z,89.60
2019-04-03T05:48:12.647Z,88.90
2019-04-03T05:50:41.366Z,89.40
2019-04-03T05:53:11.209Z,89.90
2019-04-03T05:55:41.747Z,89.20
2019-04-03T05:58:11.697Z,89.10
2019-04-03T06:00:42.118Z,89.60
2019-04-03T06:03:11.880Z,89.60
2019-04-03T06:05:43.598Z,89.40
2019-04-03T06:08:13.137Z,89.00
2019-04-03T06:10:43.023Z,88.90
2019-04-03T06:13:13.543Z,89.00
2019-04-03T06:15:43.454Z,88.90
2019-04-03T06:18:13.137Z,89.40
2019-04-03T06:20:43.969Z,89.10
2019-04-03T06:23:13.820Z,89.10
2019-04-03T06:25:43.744Z,89.40
2019-04-03T06:28:13.831Z,89.30
2019-04-03T06:30:43.782Z,89.80
2019-04-03T06:33:14.198Z,90.00
2019-04-03T06:35:45.335Z,90.60
2019-04-03T06:38:15.629Z,90.60
2019-04-03T06:40:45.496Z,90.30
2019-04-03T06:43:17.042Z,90.30
2019-04-03T06:45:46.794Z,90.60
2019-04-03T06:48:16.614Z,91.30
2019-04-03T06:50:46.458Z,91.40
2019-04-03T06:53:16.357Z,91.30
2019-04-03T06:55:46.080Z,91.50
2019-04-03T06:58:16.105Z,91.20
2019-04-03T07:00:47.353Z,91.20
2019-04-03T07:03:18.030Z,90.90
2019-04-03T07:05:47.786Z,91.00
2019-04-03T07:08:29.013Z,91.00
2019-04-03T07:10:55.183Z,90.90
2019-04-03T07:13:20.964Z,90.80
2019-04-03T07:15:51.102Z,91.00
2019-04-03T07:18:20.804Z,90.80
2019-04-03T07:20:51.884Z,90.80
2019-04-03T07:23:22.160Z,91.00
2019-04-03T07:25:52.238Z,91.80
2019-04-03T07:28:22.138Z,91.40
2019-04-03T07:30:53.814Z,92.20
2019-04-03T07:33:23.407Z,92.00
2019-04-03T07:35:53.228Z,91.70
2019-04-03T07:38:23.407Z,91.90
2019-04-03T07:40:53.425Z,92.10
2019-04-03T07:43:26.263Z,91.90
2019-04-03T07:45:54.805Z,92.20
2019-04-03T07:48:24.573Z,91.90
2019-04-03T07:50:54.374Z,92.70
2019-04-03T07:53:24.157Z,92.70
2019-04-03T07:55:55.347Z,92.30
2019-04-03T07:58:25.821Z,92.50
2019-04-03T08:00:55.817Z,92.70
2019-04-03T08:03:25.577Z,92.90
2019-04-03T08:05:56.302Z,92.50
2019-04-03T08:08:26.643Z,92.60
2019-04-03T08:10:56.506Z,93.20
2019-04-03T08:13:26.735Z,93.20
2019-04-03T08:15:56.721Z,93.00
2019-04-03T08:18:26.568Z,93.30
2019-04-03T08:20:57.665Z,93.40
2019-04-03T08:23:29.421Z,93.80
2019-04-03T08:25:59.363Z,93.10
2019-04-03T08:28:30.317Z,92.90
2019-04-03T08:31:00.726Z,92.60
2019-04-03T08:33:32.802Z,92.50
2019-04-03T08:36:02.197Z,92.50
2019-04-03T08:38:32.066Z,92.30
2019-04-03T08:41:03.319Z,92.30
2019-04-03T08:43:33.229Z,92.30
2019-04-03T08:46:02.993Z,92.20
2019-04-03T08:48:32.860Z,91.90
2019-04-03T08:51:03.810Z,92.40
2019-04-03T08:53:33.767Z,92.20
2019-04-03T08:56:03.603Z,92.50
2019-04-03T08:58:33.688Z,92.50
2019-04-03T09:01:04.793Z,92.30
2019-04-03T09:03:35.296Z,92.30
2019-04-03T09:06:05.433Z,92.60
2019-04-03T09:08:35.333Z,92.20
2019-04-03T09:11:05.529Z,92.40
2019-04-03T09:13:35.691Z,92.50
2019-04-03T09:16:05.854Z,92.70
2019-04-03T09:18:37.456Z,92.40
2019-04-03T09:21:08.469Z,92.30
2019-04-03T09:23:38.885Z,92.40
2019-04-03T09:26:08.900Z,92.30
2019-04-03T09:28:41.240Z,92.50
2019-04-03T09:31:10.293Z,92.60
2019-04-03T09:33:40.143Z,92.50
2019-04-03T09:36:10.275Z,92.40
2019-04-03T09:38:41.479Z,92.40
2019-04-03T09:41:11.994Z,92.40
2019-04-03T09:43:42.105Z,92.40
2019-04-03T09:46:12.280Z,92.30
2019-04-03T09:48:42.376Z,92.50
2019-04-03T09:51:12.218Z,92.30
2019-04-03T09:53:42.154Z,92.40
2019-04-03T09:56:12.086Z,92.30
2019-04-03T09:58:41.849Z,92.40
2019-04-03T10:01:13.798Z,92.20
2019-04-03T10:03:43.169Z,92.20
2019-04-03T10:06:12.996Z,92.40
2019-04-03T10:08:42.776Z,92.30
2019-04-03T10:11:14.934Z,92.30
2019-04-03T10:13:44.046Z,92.50
2019-04-03T10:16:16.122Z,92.40
2019-04-03T10:18:45.274Z,92.30
2019-04-03T10:21:15.188Z,92.40
2019-04-03T10:23:45.040Z,92.50
2019-04-03T10:26:15.277Z,92.30
2019-04-03T10:28:47.376Z,92.20
2019-04-03T10:31:16.612Z,92.30
2019-04-03T10:33:47.716Z,92.50
2019-04-03T10:36:18.615Z,92.60
2019-04-03T10:38:49.119Z,92.90
2019-04-03T10:41:19.555Z,92.90
2019-04-03T10:43:49.454Z,92.80
2019-04-03T10:46:19.623Z,93.00
2019-04-03T10:48:50.069Z,93.30
2019-04-03T10:51:19.850Z,93.60
2019-04-03T10:53:51.516Z,93.20
2019-04-03T10:56:21.058Z,93.70
2019-04-03T10:58:51.149Z,93.50
2019-04-03T11:01:21.271Z,94.30
2019-04-03T11:03:51.195Z,94.20
2019-04-03T11:06:21.221Z,94.60
2019-04-03T11:08:51.228Z,94.20
2019-04-03T11:11:21.277Z,94.50
2019-04-03T11:13:51.317Z,94.40
2019-04-03T11:16:21.412Z,94.20
2019-04-03T11:18:58.443Z,94.30
2019-04-03T11:21:23.149Z,94.50
2019-04-03T11:23:53.135Z,94.30
2019-04-03T11:26:24.860Z,94.20
2019-04-03T11:28:54.330Z,94.20
2019-04-03T11:31:28.035Z,94.60
2019-04-03T11:33:55.677Z,94.70
2019-04-03T11:36:29.446Z,95.20
2019-04-03T11:39:08.917Z,94.80
2019-04-03T11:41:28.729Z,95.10
2019-04-03T11:43:58.571Z,94.80
2019-04-03T11:46:28.417Z,95.10
2019-04-03T11:48:58.227Z,95.30
2019-04-03T11:51:29.546Z,95.30
2019-04-03T11:53:59.715Z,95.50
2019-04-03T11:56:29.562Z,95.20
2019-04-03T11:58:59.681Z,95.70
2019-04-03T12:01:29.770Z,95.60
2019-04-03T12:03:59.882Z,95.80
2019-04-03T12:06:29.794Z,95.60
2019-04-03T12:09:01.015Z,95.70
2019-04-03T12:11:31.736Z,95.90
2019-04-03T12:14:01.660Z,96.10
2019-04-03T12:16:31.596Z,95.90
2019-04-03T12:19:02.887Z,96.00
2019-04-03T12:21:33.337Z,96.10
2019-04-03T12:24:03.260Z,96.10
2019-04-03T12:26:33.176Z,96.20
2019-04-03T12:29:03.280Z,96.70
2019-04-03T12:31:33.491Z,96.90
2019-04-03T12:34:05.246Z,96.70
2019-04-03T12:36:34.744Z,96.80
2019-04-03T12:39:07.763Z,96.90
2019-04-03T12:41:38.076Z,97.00
2019-04-03T12:44:08.043Z,97.00
2019-04-03T12:46:41.653Z,97.50
2019-04-03T12:49:11.858Z,97.30
2019-04-03T12:51:41.639Z,97.40
2019-04-03T12:54:13.394Z,97.80
2019-04-03T12:56:42.946Z,97.60
2019-04-03T12:59:12.927Z,97.50
2019-04-03T13:01:43.103Z,97.70
2019-04-03T13:04:13.214Z,97.20
2019-04-03T13:06:43.497Z,97.40
2019-04-03T13:09:14.106Z,97.50
2019-04-03T13:11:44.174Z,97.40
2019-04-03T13:15:20.945Z,97.40
2019-04-03T13:16:47.645Z,97.90
2019-04-03T13:19:17.595Z,97.40
2019-04-03T13:21:47.492Z,97.40
2019-04-03T13:24:17.686Z,97.40
2019-04-03T13:26:48.070Z,97.40
2019-04-03T13:29:20.663Z,97.40
2019-04-03T13:31:49.550Z,97.50
2019-04-03T13:34:19.814Z,97.30
2019-04-03T13:36:51.376Z,97.00
2019-04-03T13:39:21.449Z,97.10
2019-04-03T13:41:51.226Z,97.00
2019-04-03T13:44:21.138Z,97.10
2019-04-03T13:46:52.750Z,97.20
2019-04-03T13:49:22.511Z,97.10
2019-04-03T13:51:52.764Z,96.90
2019-04-03T13:54:25.288Z,97.00
2019-04-03T13:56:54.432Z,96.90
2019-04-03T13:59:25.768Z,96.90
2019-04-03T14:01:55.717Z,97.00
2019-04-03T14:04:25.735Z,96.90
2019-04-03T14:06:55.732Z,96.90
2019-04-03T14:09:25.579Z,96.90
2019-04-03T14:12:00.422Z,96.90
2019-04-03T14:14:29.551Z,97.30
2019-04-03T14:16:59.419Z,97.10
2019-04-03T14:19:41.809Z,97.30
2019-04-03T14:22:00.862Z,96.90
2019-04-03T14:24:41.467Z,97.00
2019-04-03T14:27:02.787Z,96.90
2019-04-03T14:29:32.634Z,97.10
2019-04-03T14:32:02.477Z,96.90
2019-04-03T14:34:32.386Z,97.00
2019-04-03T14:37:02.335Z,97.30
2019-04-03T14:39:32.227Z,97.00
2019-04-03T14:42:02.007Z,96.70
2019-04-03T14:44:31.886Z,97.20
2019-04-03T14:47:01.629Z,97.80
2019-04-03T14:49:32.844Z,97.40
2019-04-03T14:52:03.003Z,97.10
2019-04-03T14:54:33.036Z,97.20
2019-04-03T14:57:12.693Z,97.00
2019-04-03T14:59:35.337Z,97.20
2019-04-03T15:02:05.752Z,97.30
2019-04-03T15:04:37.132Z,96.90
2019-04-03T15:07:09.873Z,99.90
2019-04-03T15:09:39.066Z,99.70
2019-04-03T15:12:11.626Z,98.30
2019-04-03T15:14:40.588Z,97.20
2019-04-03T15:17:10.409Z,96.80
2019-04-03T15:19:40.414Z,96.00
2019-04-03T15:22:10.154Z,95.70
2019-04-03T15:24:42.255Z,95.40
2019-04-03T15:27:11.443Z,95.30
2019-04-03T15:29:41.258Z,95.10
2019-04-03T15:32:11.166Z,95.20
2019-04-03T15:34:41.457Z,95.00
2019-04-03T15:37:13.955Z,94.80
2019-04-03T15:39:42.975Z,94.80
2019-04-03T15:42:13.171Z,95.00
2019-04-03T15:44:43.346Z,95.00
2019-04-03T15:47:13.393Z,95.00
2019-04-03T15:49:45.167Z,95.00
2019-04-03T15:52:15.178Z,95.00
2019-04-03T15:54:45.169Z,94.90
2019-04-03T15:57:14.972Z,95.00
2019-04-03T15:59:44.808Z,94.90
2019-04-03T16:02:14.720Z,95.30
2019-04-03T16:04:44.642Z,95.00
2019-04-03T16:07:14.927Z,95.00
2019-04-03T16:09:45.148Z,95.10
2019-04-03T16:12:15.066Z,95.10
2019-04-03T16:14:45.252Z,95.00
2019-04-03T16:17:15.497Z,95.00
2019-04-03T16:19:46.077Z,95.10
2019-04-03T16:22:16.268Z,95.10
2019-04-03T16:24:46.624Z,95.00
2019-04-03T16:27:16.498Z,95.00
2019-04-03T16:29:46.343Z,94.90
2019-04-03T16:32:16.547Z,95.00
2019-04-03T16:34:46.745Z,95.10
2019-04-03T16:37:16.663Z,94.90
2019-04-03T16:39:46.971Z,94.80
2019-04-03T16:42:19.347Z,94.90
2019-04-03T16:44:49.365Z,94.90
2019-04-03T16:47:19.283Z,95.00
2019-04-03T16:49:49.634Z,95.00
2019-04-03T16:52:19.970Z,95.00
2019-04-03T16:54:50.022Z,95.10
2019-04-03T16:57:22.561Z,95.10
2019-04-03T16:59:51.797Z,95.10
2019-04-03T17:02:25.225Z,95.20
2019-04-03T17:04:53.410Z,95.20
2019-04-03T17:07:23.298Z,95.30
2019-04-03T17:09:53.408Z,95.30
2019-04-03T17:12:23.435Z,95.40
2019-04-03T17:14:54.977Z,95.40
2019-04-03T17:17:25.004Z,95.40
2019-04-03T17:19:56.385Z,95.40
2019-04-03T17:22:26.175Z,95.60
2019-04-03T17:24:56.520Z,95.50
2019-04-03T17:27:30.687Z,95.60
2019-04-03T17:30:01.130Z,95.50
2019-04-03T17:32:31.741Z,95.70
2019-04-03T17:35:02.005Z,95.70
2019-04-03T17:37:32.002Z,95.60
2019-04-03T17:40:04.104Z,95.50
2019-04-03T17:42:34.683Z,95.50
2019-04-03T17:45:07.304Z,95.40
2019-04-03T17:47:37.316Z,95.40
2019-04-03T17:50:10.277Z,95.40
2019-04-03T17:52:40.187Z,95.30
2019-04-03T17:55:11.560Z,95.40
2019-04-03T17:57:44.590Z,95.40
2019-04-03T18:00:20.942Z,95.30
2019-04-03T18:02:50.718Z,95.40
2019-04-03T18:05:20.695Z,95.40
2019-04-03T18:07:50.523Z,95.40
2019-04-03T18:10:20.632Z,95.40
2019-04-03T18:12:52.366Z,95.30
2019-04-03T18:15:21.975Z,95.40
2019-04-03T18:17:51.965Z,95.20
2019-04-03T18:20:22.005Z,95.20
2019-04-03T18:22:51.986Z,95.30
2019-04-03T18:25:22.723Z,95.20
2019-04-03T18:27:52.714Z,95.10
2019-04-03T18:30:23.374Z,95.10
2019-04-03T18:32:53.343Z,95.20
2019-04-03T18:35:25.553Z,95.20
2019-04-03T18:37:54.926Z,95.10
2019-04-03T18:40:24.702Z,95.30
2019-04-03T18:42:55.053Z,95.00
2019-04-03T18:45:25.900Z,95.00
2019-04-03T18:47:57.075Z,95.20
2019-04-03T18:50:27.343Z,95.20
2019-04-03T18:52:57.408Z,95.20
2019-04-03T18:55:27.584Z,95.00
2019-04-03T18:57:57.481Z,95.10
2019-04-03T19:00:30.432Z,95.00
2019-04-03T19:02:59.081Z,95.00
2019-04-03T19:05:29.132Z,94.90
2019-04-03T19:07:59.086Z,95.00
2019-04-03T19:10:32.238Z,94.90
2019-04-03T19:13:02.071Z,94.90
2019-04-03T19:15:33.658Z,94.80
2019-04-03T19:18:17.847Z,94.90
2019-04-03T19:20:36.219Z,94.80
2019-04-03T19:23:07.072Z,94.70
2019-04-03T19:25:37.810Z,94.70
2019-04-03T19:28:07.850Z,94.80
2019-04-03T19:30:38.013Z,94.70
2019-04-03T19:33:08.541Z,94.70
2019-04-03T19:35:38.542Z,94.60
2019-04-03T19:38:08.803Z,94.60
2019-04-03T19:40:40.510Z,94.20
2019-04-03T19:43:10.617Z,94.50
2019-04-03T19:45:40.696Z,94.30
2019-04-03T19:48:10.549Z,94.30
2019-04-03T19:50:40.569Z,94.40
2019-04-03T19:53:12.939Z,94.10
2019-04-03T19:55:42.031Z,94.00
2019-04-03T19:58:11.841Z,94.20
2019-04-03T20:00:41.922Z,94.10
2019-04-03T20:03:13.802Z,93.90
2019-04-03T20:05:44.041Z,93.80
2019-04-03T20:08:14.213Z,93.90
2019-04-03T20:10:44.077Z,93.50
2019-04-03T20:13:13.963Z,93.80
2019-04-03T20:15:43.963Z,93.70
2019-04-03T20:18:13.960Z,93.70
2019-04-03T20:20:43.973Z,93.50
2019-04-03T20:23:13.830Z,93.30
2019-04-03T20:25:44.031Z,93.70
2019-04-03T20:28:15.569Z,93.50
2019-04-03T20:30:46.159Z,93.20
2019-04-03T20:33:16.067Z,93.20
2019-04-03T20:35:45.921Z,93.30
2019-04-03T20:38:18.779Z,93.30
2019-04-03T20:40:48.592Z,93.20
2019-04-03T20:43:18.461Z,93.10
2019-04-03T20:45:49.809Z,93.30
2019-04-03T20:48:19.697Z,93.50
2019-04-03T20:50:49.642Z,93.40
2019-04-03T20:53:19.382Z,92.80
2019-04-03T20:55:49.174Z,92.80
2019-04-03T20:58:19.048Z,93.20
2019-04-03T21:01:00.090Z,93.00
2019-04-03T21:03:21.263Z,93.40
2019-04-03T21:05:51.201Z,92.80
2019-04-03T21:08:21.101Z,92.70
2019-04-03T21:10:50.877Z,93.20
2019-04-03T21:13:20.795Z,92.90
2019-04-03T21:15:52.282Z,93.10
2019-04-03T21:18:22.407Z,92.90
2019-04-03T21:20:54.426Z,92.50
2019-04-03T21:23:23.777Z,92.70
2019-04-03T21:25:53.639Z,92.80
2019-04-03T21:28:23.472Z,92.60
2019-04-03T21:30:54.969Z,92.90
2019-04-03T21:33:24.758Z,93.00
2019-04-03T21:35:55.086Z,92.50
2019-04-03T21:38:25.076Z,92.80
2019-04-03T21:40:55.818Z,92.60
2019-04-03T21:43:27.224Z,92.40
2019-04-03T21:45:57.585Z,92.00
2019-04-03T21:48:27.433Z,92.10
2019-04-03T21:50:57.288Z,92.70
2019-04-03T21:53:27.060Z,92.60
2019-04-03T21:55:56.906Z,92.60
2019-04-03T21:58:26.790Z,92.60
2019-04-03T22:01:02.529Z,92.40
2019-04-03T22:03:32.390Z,92.70
2019-04-03T22:06:02.362Z,92.50
2019-04-03T22:08:32.306Z,92.40
2019-04-03T22:11:04.600Z,92.30
2019-04-03T22:13:33.737Z,92.50
2019-04-03T22:16:03.643Z,92.20
2019-04-03T22:18:33.493Z,92.10
2019-04-03T22:21:03.386Z,92.30
2019-04-03T22:23:35.554Z,92.70
2019-04-03T22:26:05.231Z,92.50
2019-04-03T22:28:35.053Z,93.00
2019-04-03T22:31:04.982Z,92.80
2019-04-03T22:33:34.847Z,93.10
2019-04-03T22:36:04.866Z,93.20
2019-04-03T22:38:36.954Z,92.70
2019-04-03T22:41:06.178Z,92.90
2019-04-03T22:43:36.022Z,92.40
2019-04-03T22:46:05.849Z,92.70
2019-04-03T22:48:35.617Z,92.90
2019-04-03T22:51:06.925Z,93.00
2019-04-03T22:53:36.811Z,92.90
2019-04-03T22:56:06.626Z,93.00
2019-04-03T22:58:36.429Z,93.10
2019-04-03T23:01:06.715Z,92.60
2019-04-03T23:03:36.508Z,92.60
2019-04-03T23:06:06.264Z,92.40
2019-04-03T23:08:36.070Z,92.80
2019-04-03T23:11:05.833Z,92.90
2019-04-03T23:13:36.221Z,92.90
2019-04-03T23:16:06.349Z,93.10
2019-04-03T23:18:36.142Z,93.40
2019-04-03T23:21:05.954Z,93.10
2019-04-03T23:23:35.719Z,93.00
2019-04-03T23:26:05.601Z,93.20
2019-04-03T23:28:35.451Z,93.30
2019-04-03T23:31:05.383Z,93.30
2019-04-03T23:33:35.222Z,93.30
2019-04-03T23:36:05.271Z,93.50
2019-04-03T23:38:35.045Z,93.30
2019-04-03T23:41:06.097Z,93.50
2019-04-03T23:43:39.248Z,93.30
2019-04-03T23:46:08.070Z,93.30
2019-04-03T23:48:37.924Z,93.60
2019-04-03T23:51:07.707Z,93.30
2019-04-03T23:53:37.603Z,93.10
2019-04-03T23:56:07.917Z,93.20
2019-04-03T23:58:37.816Z,93.20
